Historique des mesures à Cassis (13260), France
Quotidien Résumé Avril 8, 2020 Unités:  Métrique    US   Métrique/US
Quotidien Hebdomadaire Mensuel Annuel
  Maximum: Minimum: Moyenne:
Température: 30.1 °C 20.1 °C 24.6 °C
Point de rosée: 16.1 °C 12.4 °C 14.4 °C
Humidité: 68% 42% 54%
Vitesse du vent: 6.8km/h 0km/h 2.2km/h
Rafales: 16.9km/h - -
Vent- - South
Pression: 1019.7 hPa 1016.7 hPa -
Précipitations: 0.0 mm    
Historical Graphs
 
 
Mesures pour : Avril 8, 2020
Heure Temperature Point de rosée Pression Vent Vitesse du vent Rafales Humidité Pluie (par heure)
00:12 21.9 °C 14.3 °C 1016.7 hPa NNE 2.2 km/h 6.1 km/h 62% 0.0 mm
01:11 21.2 °C 15 °C 1017.0 hPa NW 2.5 km/h 7.6 km/h 68% 0.0 mm
02:11 20.9 °C 14.7 °C 1017.0 hPa Calm   5 km/h 68% 0.0 mm
03:11 20.9 °C 14.5 °C 1017.1 hPa Calm   4.3 km/h 67% 0.0 mm
04:11 20.5 °C 13.7 °C 1017.3 hPa Calm   4.7 km/h 65% 0.0 mm
05:11 20.1 °C 13.1 °C 1017.3 hPa Calm   5 km/h 64% 0.0 mm
06:12 20.6 °C 12.8 °C 1017.6 hPa NW 2.5 km/h 5.8 km/h 61% 0.0 mm
07:12 21 °C 12.4 °C 1018.0 hPa North 5 km/h 8.3 km/h 58% 0.0 mm
08:12 21.4 °C 12.5 °C 1018.7 hPa NW 2.2 km/h 6.5 km/h 57% 0.0 mm
09:12 23.2 °C 13 °C 1018.6 hPa NE 6.5 km/h 11.5 km/h 53% 0.0 mm
10:11 24.6 °C 13.2 °C 1019.4 hPa Calm   5.8 km/h 49% 0.0 mm
11:11 25.9 °C 13.7 °C 1019.7 hPa NW 2.2 km/h 3.6 km/h 47% 0.0 mm
12:12 27.9 °C 14.8 °C 1019.4 hPa SE 6.8 km/h 10.1 km/h 45% 0.0 mm
13:11 29.9 °C 15.6 °C 1019.4 hPa SSE 2.5 km/h 16.9 km/h 42% 0.0 mm
14:11 30.1 °C 15.8 °C 1019.6 hPa SE 4.3 km/h 11.9 km/h 42% 0.0 mm
15:11 29.7 °C 15.4 °C 1019.4 hPa Calm   9.4 km/h 42% 0.0 mm
16:12 29.4 °C 15.9 °C 1019.3 hPa South 6.1 km/h 9.7 km/h 44% 0.0 mm
17:11 29.1 °C 15.9 °C 1019.3 hPa SSE 5.8 km/h 6.5 km/h 45% 0.0 mm
18:11 28.2 °C 16.1 °C 1019.3 hPa SE 1.8 km/h 4 km/h 48% 0.0 mm
19:11 26.7 °C 15.4 °C 1019.3 hPa Calm     50% 0.0 mm
20:11 25.8 °C 15.5 °C 1019.5 hPa Calm     53% 0.0 mm
21:11 24.6 °C 14.7 °C 1019.7 hPa NW 1.8 km/h 6.5 km/h 54% 0.0 mm
22:11 23.8 °C 13.4 °C 1019.7 hPa Calm   2.9 km/h 52% 0.0 mm
23:11 23.8 °C 14.2 °C 1019.6 hPa Calm   3.6 km/h 55% 0.0 mm
Observations météo à CASSIS
WU-History script by Weather Underground - 2 mb